createdAt,value
2022-10-01T00:00:00.011Z,53.60
2022-10-01T00:02:49.365Z,53.50
2022-10-01T00:05:38.699Z,53.60
2022-10-01T00:08:28.642Z,53.60
2022-10-01T00:11:20.884Z,53.60
2022-10-01T00:14:12.027Z,53.40
2022-10-01T00:17:01.352Z,54.20
2022-10-01T00:19:50.777Z,53.60
2022-10-01T00:22:40.174Z,53.70
2022-10-01T00:25:30.465Z,53.60
2022-10-01T00:28:19.819Z,53.70
2022-10-01T00:31:11.624Z,53.90
2022-10-01T00:34:03.777Z,53.90
2022-10-01T00:36:53.085Z,53.90
2022-10-01T00:39:42.465Z,53.90
2022-10-01T00:42:31.828Z,54.10
2022-10-01T00:45:21.346Z,54.10
2022-10-01T00:48:12.049Z,54.00
2022-10-01T00:51:02.157Z,54.20
2022-10-01T00:53:51.618Z,54.30
2022-10-01T00:56:42.141Z,54.30
2022-10-01T00:59:32.536Z,54.40
2022-10-01T01:02:22.093Z,54.50
2022-10-01T01:05:13.630Z,54.50
2022-10-01T01:08:04.352Z,54.50
2022-10-01T01:11:05.485Z,54.50
2022-10-01T01:14:04.059Z,54.60
2022-10-01T01:16:59.778Z,54.70
2022-10-01T01:20:09.563Z,54.50
2022-10-01T01:23:17.952Z,54.70
2022-10-01T01:26:22.173Z,54.70
2022-10-01T01:29:18.230Z,54.80
2022-10-01T01:32:15.007Z,54.60
2022-10-01T01:35:08.675Z,54.60
2022-10-01T01:38:03.221Z,54.70
2022-10-01T01:40:55.853Z,54.80
2022-10-01T01:43:49.210Z,54.80
2022-10-01T01:46:46.592Z,54.80
2022-10-01T01:49:36.481Z,54.90
2022-10-01T01:52:26.032Z,54.90
2022-10-01T01:55:16.049Z,54.90
2022-10-01T01:58:05.773Z,55.00
2022-10-01T02:00:55.248Z,55.10
2022-10-01T02:03:45.885Z,55.80
2022-10-01T02:06:50.334Z,55.40
2022-10-01T02:09:52.224Z,55.70
2022-10-01T02:13:01.892Z,55.60
2022-10-01T02:16:04.507Z,55.70
2022-10-01T02:19:02.401Z,55.60
2022-10-01T02:22:00.546Z,55.70
2022-10-01T02:24:57.769Z,55.70
2022-10-01T02:27:55.930Z,55.60
2022-10-01T02:30:46.183Z,55.60
2022-10-01T02:33:37.408Z,55.60
2022-10-01T02:36:30.957Z,55.60
2022-10-01T02:39:22.071Z,55.60
2022-10-01T02:42:15.331Z,55.50
2022-10-01T02:45:07.561Z,55.60
2022-10-01T02:48:02.622Z,55.50
2022-10-01T02:50:55.390Z,55.60
2022-10-01T02:53:50.554Z,55.60
2022-10-01T02:56:58.786Z,55.60
2022-10-01T02:59:48.184Z,55.60
2022-10-01T03:02:37.821Z,55.50
2022-10-01T03:05:27.438Z,55.60
2022-10-01T03:08:16.852Z,55.50
2022-10-01T03:11:08.601Z,56.10
2022-10-01T03:13:58.318Z,55.50
2022-10-01T03:16:47.626Z,56.10
2022-10-01T03:19:37.037Z,55.50
2022-10-01T03:22:26.340Z,55.60
2022-10-01T03:25:16.055Z,55.60
2022-10-01T03:28:06.842Z,55.50
2022-10-01T03:31:08.088Z,55.40
2022-10-01T03:34:00.470Z,55.60
2022-10-01T03:36:50.234Z,55.40
2022-10-01T03:39:39.950Z,55.40
2022-10-01T03:42:29.283Z,55.50
2022-10-01T03:45:19.926Z,55.40
2022-10-01T03:48:09.249Z,55.50
2022-10-01T03:51:00.645Z,55.50
2022-10-01T03:53:50.060Z,55.60
2022-10-01T03:56:40.890Z,55.60
2022-10-01T03:59:30.186Z,55.70
2022-10-01T04:02:22.109Z,55.80
2022-10-01T04:05:12.366Z,56.00
2022-10-01T04:08:02.337Z,55.90
2022-10-01T04:10:51.887Z,55.90
2022-10-01T04:13:41.177Z,56.10
2022-10-01T04:16:30.579Z,56.10
2022-10-01T04:19:21.445Z,56.30
2022-10-01T04:22:10.748Z,56.30
2022-10-01T04:25:00.065Z,56.30
2022-10-01T04:27:59.662Z,56.40
2022-10-01T04:30:48.949Z,56.60
2022-10-01T04:33:38.312Z,56.40
2022-10-01T04:36:29.150Z,56.60
2022-10-01T04:39:18.455Z,56.50
2022-10-01T04:42:07.802Z,56.70
2022-10-01T04:44:57.401Z,56.50
2022-10-01T04:47:50.620Z,56.70
2022-10-01T04:50:39.913Z,57.00
2022-10-01T04:53:30.606Z,57.00
2022-10-01T04:56:19.933Z,56.90
2022-10-01T04:59:09.234Z,57.10
2022-10-01T05:01:58.578Z,57.10
2022-10-01T05:04:48.165Z,57.30
2022-10-01T05:07:38.199Z,57.30
2022-10-01T05:10:28.911Z,57.40
2022-10-01T05:13:18.294Z,57.30
2022-10-01T05:16:08.082Z,57.40
2022-10-01T05:18:58.358Z,57.40
2022-10-01T05:21:47.628Z,57.30
2022-10-01T05:24:36.957Z,57.30
2022-10-01T05:27:27.627Z,57.40
2022-10-01T05:30:24.205Z,57.40
2022-10-01T05:33:13.725Z,57.50
2022-10-01T05:36:03.986Z,57.60
2022-10-01T05:38:53.259Z,57.80
2022-10-01T05:41:42.587Z,58.20
2022-10-01T05:44:37.969Z,58.80
2022-10-01T05:47:27.303Z,59.00
2022-10-01T05:50:16.958Z,58.80
2022-10-01T05:53:06.901Z,58.60
2022-10-01T05:55:56.218Z,58.30
2022-10-01T05:58:46.822Z,57.90
2022-10-01T06:01:37.574Z,57.80
2022-10-01T06:04:27.160Z,57.70
2022-10-01T06:07:16.461Z,57.60
2022-10-01T06:10:06.969Z,57.50
2022-10-01T06:13:01.846Z,57.50
2022-10-01T06:15:54.210Z,57.50
2022-10-01T06:18:44.894Z,57.60
2022-10-01T06:21:34.541Z,57.50
2022-10-01T06:24:24.062Z,57.60
2022-10-01T06:27:13.401Z,57.60
2022-10-01T06:30:02.707Z,57.60
2022-10-01T06:32:52.012Z,57.70
2022-10-01T06:35:45.534Z,57.80
2022-10-01T06:38:34.850Z,57.80
2022-10-01T06:41:24.925Z,57.90
2022-10-01T06:44:15.140Z,57.90
2022-10-01T06:47:04.462Z,57.80
2022-10-01T06:49:53.787Z,57.90
2022-10-01T06:52:50.029Z,57.90
2022-10-01T06:55:40.019Z,58.10
2022-10-01T06:58:30.179Z,58.10
2022-10-01T07:01:20.973Z,58.00
2022-10-01T07:04:10.324Z,58.20
2022-10-01T07:06:59.657Z,58.10
2022-10-01T07:09:50.328Z,58.10
2022-10-01T07:12:39.829Z,58.20
2022-10-01T07:15:29.559Z,58.20
2022-10-01T07:18:19.062Z,58.50
2022-10-01T07:21:08.851Z,58.70
2022-10-01T07:23:58.111Z,58.90
2022-10-01T07:26:51.063Z,59.00
2022-10-01T07:29:40.443Z,58.90
2022-10-01T07:32:31.648Z,58.70
2022-10-01T07:35:21.437Z,58.70
2022-10-01T07:38:10.846Z,58.50
2022-10-01T07:41:02.518Z,58.40
2022-10-01T07:43:53.177Z,58.50
2022-10-01T07:46:42.483Z,58.60
2022-10-01T07:49:31.772Z,58.80
2022-10-01T07:52:21.316Z,59.30
2022-10-01T07:55:14.030Z,60.10
2022-10-01T07:58:03.400Z,60.60
2022-10-01T08:00:58.525Z,60.80
2022-10-01T08:03:50.070Z,60.60
2022-10-01T08:06:39.910Z,60.20
2022-10-01T08:09:29.237Z,60.10
2022-10-01T08:12:19.716Z,59.90
2022-10-01T08:15:11.313Z,59.40
2022-10-01T08:18:04.426Z,58.90
2022-10-01T08:20:53.801Z,58.50
2022-10-01T08:23:43.119Z,58.10
2022-10-01T08:26:33.069Z,57.80
2022-10-01T08:29:22.475Z,57.70
2022-10-01T08:32:11.839Z,57.50
2022-10-01T08:35:02.614Z,57.40
2022-10-01T08:37:52.317Z,57.50
2022-10-01T08:40:47.225Z,57.50
2022-10-01T08:43:39.677Z,57.60
2022-10-01T08:46:35.086Z,57.80
2022-10-01T08:49:29.623Z,57.90
2022-10-01T08:52:24.602Z,57.80
2022-10-01T08:55:20.700Z,57.70
2022-10-01T08:58:15.012Z,57.60
2022-10-01T09:01:04.847Z,57.60
2022-10-01T09:03:54.971Z,57.50
2022-10-01T09:06:47.347Z,57.60
2022-10-01T09:09:46.743Z,57.60
2022-10-01T09:12:49.497Z,57.80
2022-10-01T09:15:49.847Z,57.80
2022-10-01T09:18:51.163Z,57.70
2022-10-01T09:21:56.183Z,57.70
2022-10-01T09:24:50.689Z,57.70
2022-10-01T09:27:40.684Z,58.00
2022-10-01T09:30:31.424Z,58.50
2022-10-01T09:33:22.064Z,58.70
2022-10-01T09:36:23.251Z,58.70
2022-10-01T09:39:21.785Z,58.40
2022-10-01T09:42:13.257Z,58.10
2022-10-01T09:45:02.618Z,57.80
2022-10-01T09:47:56.465Z,57.50
2022-10-01T09:50:54.616Z,57.20
2022-10-01T09:53:51.601Z,57.00
2022-10-01T09:56:48.071Z,56.80
2022-10-01T09:59:45.146Z,56.70
2022-10-01T10:02:48.179Z,56.60
2022-10-01T10:05:44.347Z,56.40
2022-10-01T10:08:37.693Z,56.30
2022-10-01T10:11:30.310Z,56.40
2022-10-01T10:14:27.134Z,56.30
2022-10-01T10:17:18.208Z,56.30
2022-10-01T10:20:18.906Z,56.00
2022-10-01T10:23:12.769Z,55.90
2022-10-01T10:26:05.999Z,55.70
2022-10-01T10:28:56.327Z,55.60
2022-10-01T10:31:47.013Z,55.60
2022-10-01T10:34:39.732Z,55.50
2022-10-01T10:37:32.612Z,55.40
2022-10-01T10:40:29.235Z,55.50
2022-10-01T10:43:22.961Z,55.60
2022-10-01T10:46:12.587Z,55.60
2022-10-01T10:49:07.454Z,55.60
2022-10-01T10:52:01.060Z,55.80
2022-10-01T10:54:52.238Z,55.80
2022-10-01T10:57:41.606Z,55.70
2022-10-01T11:00:30.990Z,55.90
2022-10-01T11:03:25.046Z,55.80
2022-10-01T11:06:18.535Z,56.00
2022-10-01T11:09:12.285Z,56.00
2022-10-01T11:12:13.038Z,56.10
2022-10-01T11:15:23.015Z,56.20
2022-10-01T11:18:57.678Z,56.40
2022-10-01T11:22:03.385Z,56.70
2022-10-01T11:25:20.997Z,56.50
2022-10-01T11:28:30.908Z,56.80
2022-10-01T11:31:33.447Z,57.00
2022-10-01T11:35:01.867Z,57.00
2022-10-01T11:38:36.243Z,57.50
2022-10-01T11:41:36.399Z,57.50
2022-10-01T11:44:30.841Z,57.60
2022-10-01T11:47:26.066Z,57.60
2022-10-01T11:50:19.605Z,58.50
2022-10-01T11:53:16.754Z,58.00
2022-10-01T11:56:30.032Z,58.20
2022-10-01T11:59:29.637Z,58.40
2022-10-01T12:02:28.293Z,58.50
2022-10-01T12:05:21.359Z,58.50
2022-10-01T12:08:19.972Z,58.80
2022-10-01T12:11:17.922Z,58.70
2022-10-01T12:14:12.760Z,58.90
2022-10-01T12:17:16.483Z,59.20
2022-10-01T12:20:16.784Z,59.60
2022-10-01T12:23:11.359Z,59.70
2022-10-01T12:26:23.003Z,59.90
2022-10-01T12:29:22.398Z,60.10
2022-10-01T12:32:23.650Z,60.10
2022-10-01T12:35:33.446Z,60.40
2022-10-01T12:38:43.081Z,60.50
2022-10-01T12:41:46.933Z,60.60
2022-10-01T12:44:56.549Z,60.50
2022-10-01T12:47:53.078Z,60.70
2022-10-01T12:50:53.084Z,60.40
2022-10-01T12:53:53.613Z,60.50
2022-10-01T12:56:52.173Z,60.40
2022-10-01T13:00:00.899Z,60.30
2022-10-01T13:03:45.979Z,60.60
2022-10-01T13:06:49.604Z,60.60
2022-10-01T13:09:49.108Z,60.40
2022-10-01T13:12:57.989Z,60.50
2022-10-01T13:15:51.581Z,60.70
2022-10-01T13:18:56.747Z,60.40
2022-10-01T13:22:07.872Z,60.60
2022-10-01T13:25:04.450Z,60.70
2022-10-01T13:28:02.111Z,60.50
2022-10-01T13:31:00.531Z,60.70
2022-10-01T13:34:01.111Z,61.00
2022-10-01T13:36:50.885Z,61.20
2022-10-01T13:39:42.164Z,60.90
2022-10-01T13:42:38.815Z,61.20
2022-10-01T13:45:34.299Z,61.30
2022-10-01T13:48:26.533Z,61.50
2022-10-01T13:51:17.697Z,61.70
2022-10-01T13:54:20.670Z,61.90
2022-10-01T13:57:10.985Z,62.20
2022-10-01T14:00:05.516Z,62.40
2022-10-01T14:03:36.206Z,62.70
2022-10-01T14:06:33.258Z,63.20
2022-10-01T14:09:28.935Z,63.20
2022-10-01T14:12:39.919Z,63.20
2022-10-01T14:15:54.714Z,63.20
2022-10-01T14:18:49.526Z,63.50
2022-10-01T14:21:56.762Z,63.60
2022-10-01T14:25:06.557Z,63.90
2022-10-01T14:28:15.050Z,64.10
2022-10-01T14:31:10.783Z,64.90
2022-10-01T14:34:38.490Z,63.90
2022-10-01T14:37:30.830Z,63.90
2022-10-01T14:40:23.419Z,63.40
2022-10-01T14:43:19.597Z,63.20
2022-10-01T14:46:16.891Z,63.20
2022-10-01T14:49:06.228Z,63.20
2022-10-01T14:52:02.615Z,62.80
2022-10-01T14:54:59.845Z,62.80
2022-10-01T14:57:52.522Z,62.70
2022-10-01T15:00:52.388Z,62.60
2022-10-01T15:03:43.613Z,62.70
2022-10-01T15:06:44.081Z,62.40
2022-10-01T15:09:35.508Z,62.70
2022-10-01T15:12:26.189Z,62.40
2022-10-01T15:15:22.176Z,62.50
2022-10-01T15:18:15.897Z,62.60
2022-10-01T15:21:07.825Z,62.70
2022-10-01T15:23:57.960Z,63.00
2022-10-01T15:26:48.438Z,63.00
2022-10-01T15:29:40.898Z,63.20
2022-10-01T15:32:30.423Z,63.30
2022-10-01T15:35:23.825Z,63.20
2022-10-01T15:38:13.741Z,63.30
2022-10-01T15:41:29.935Z,63.20
2022-10-01T15:44:45.564Z,63.20
2022-10-01T15:47:37.438Z,63.40
2022-10-01T15:50:29.567Z,62.60
2022-10-01T15:53:23.032Z,62.70
2022-10-01T15:56:16.361Z,62.60
2022-10-01T15:59:14.294Z,62.60
2022-10-01T16:02:11.210Z,62.80
2022-10-01T16:05:06.353Z,62.70
2022-10-01T16:07:58.542Z,62.80
2022-10-01T16:10:48.101Z,62.70
2022-10-01T16:13:40.160Z,62.80
2022-10-01T16:16:30.911Z,63.10
2022-10-01T16:19:25.182Z,63.20
2022-10-01T16:22:17.181Z,63.50
2022-10-01T16:25:31.894Z,63.50
2022-10-01T16:28:29.196Z,63.70
2022-10-01T16:31:18.609Z,64.10
2022-10-01T16:34:12.990Z,63.90
2022-10-01T16:37:09.314Z,64.50
2022-10-01T16:39:58.607Z,64.50
2022-10-01T16:42:49.420Z,64.60
2022-10-01T16:45:42.776Z,65.10
2022-10-01T16:48:32.114Z,65.40
2022-10-01T16:51:22.565Z,65.90
2022-10-01T16:54:23.077Z,66.20
2022-10-01T16:57:12.634Z,67.00
2022-10-01T17:00:02.565Z,66.70
2022-10-01T17:02:51.883Z,66.80
2022-10-01T17:05:41.665Z,66.90
2022-10-01T17:08:31.206Z,66.90
2022-10-01T17:11:22.562Z,66.90
2022-10-01T17:14:17.439Z,67.30
2022-10-01T17:17:06.805Z,67.70
2022-10-01T17:19:56.122Z,67.40
2022-10-01T17:22:45.438Z,67.60
2022-10-01T17:25:38.240Z,67.80
2022-10-01T17:28:29.110Z,68.20
2022-10-01T17:31:18.633Z,68.40
2022-10-01T17:34:08.623Z,68.60
2022-10-01T17:36:59.847Z,68.80
2022-10-01T17:39:49.137Z,68.70
2022-10-01T17:42:38.599Z,68.70
2022-10-01T17:45:29.342Z,68.70
2022-10-01T17:48:21.765Z,68.90
2022-10-01T17:51:14.367Z,68.70
2022-10-01T17:54:04.644Z,68.80
2022-10-01T17:56:55.824Z,68.70
2022-10-01T17:59:45.119Z,68.70
2022-10-01T18:02:42.170Z,68.70
2022-10-01T18:05:32.519Z,68.90
2022-10-01T18:08:33.227Z,69.00
2022-10-01T18:11:31.697Z,69.40
2022-10-01T18:14:21.101Z,69.40
2022-10-01T18:17:10.489Z,69.50
2022-10-01T18:20:01.525Z,70.00
2022-10-01T18:22:52.044Z,70.70
2022-10-01T18:25:41.482Z,70.90
2022-10-01T18:28:32.590Z,71.40
2022-10-01T18:31:27.341Z,71.90
2022-10-01T18:34:25.686Z,72.60
2022-10-01T18:37:33.962Z,72.90
2022-10-01T18:40:30.663Z,73.60
2022-10-01T18:43:24.784Z,72.80
2022-10-01T18:46:33.001Z,73.30
2022-10-01T18:49:56.182Z,73.90
2022-10-01T18:53:04.790Z,74.30
2022-10-01T18:56:23.937Z,74.20
2022-10-01T18:59:54.096Z,74.70
2022-10-01T19:03:09.769Z,74.60
2022-10-01T19:06:13.436Z,74.20
2022-10-01T19:09:28.438Z,73.80
2022-10-01T19:12:42.266Z,74.00
2022-10-01T19:15:42.005Z,73.60
2022-10-01T19:18:50.659Z,73.30
2022-10-01T19:21:49.303Z,73.30
2022-10-01T19:25:03.221Z,72.70
2022-10-01T19:28:11.854Z,74.10
2022-10-01T19:31:12.616Z,73.80
2022-10-01T19:34:10.295Z,73.60
2022-10-01T19:37:06.367Z,73.60
2022-10-01T19:40:01.628Z,73.70
2022-10-01T19:43:00.477Z,73.80
2022-10-01T19:45:56.334Z,74.30
2022-10-01T19:48:51.887Z,74.20
2022-10-01T19:51:46.869Z,74.60
2022-10-01T19:54:43.247Z,74.60
2022-10-01T19:57:39.076Z,75.20
2022-10-01T20:00:28.675Z,75.10
2022-10-01T20:03:27.417Z,74.70
2022-10-01T20:06:23.285Z,75.60
2022-10-01T20:09:24.396Z,76.10
2022-10-01T20:12:24.760Z,76.70
2022-10-01T20:15:26.789Z,76.80
2022-10-01T20:18:28.234Z,77.10
2022-10-01T20:21:44.021Z,77.00
2022-10-01T20:24:48.188Z,77.60
2022-10-01T20:27:49.524Z,77.70
2022-10-01T20:30:52.117Z,77.70
2022-10-01T20:33:51.707Z,77.70
2022-10-01T20:36:47.756Z,77.70
2022-10-01T20:39:42.158Z,77.40
2022-10-01T20:42:38.482Z,77.50
2022-10-01T20:45:30.157Z,78.40
2022-10-01T20:48:24.601Z,77.80
2022-10-01T20:51:18.674Z,78.70
2022-10-01T20:54:13.069Z,78.90
2022-10-01T20:57:09.863Z,78.90
2022-10-01T21:00:05.703Z,79.10
2022-10-01T21:03:03.326Z,78.70
2022-10-01T21:05:58.306Z,78.70
2022-10-01T21:08:53.582Z,79.30
2022-10-01T21:11:49.113Z,79.30
2022-10-01T21:14:43.177Z,79.50
2022-10-01T21:17:42.114Z,79.30
2022-10-01T21:20:47.006Z,80.30
2022-10-01T21:24:01.187Z,80.80
2022-10-01T21:27:02.188Z,81.10
2022-10-01T21:30:10.073Z,80.30
2022-10-01T21:33:15.227Z,81.10
2022-10-01T21:36:13.411Z,81.10
2022-10-01T21:39:12.389Z,81.20
2022-10-01T21:42:15.635Z,81.50
2022-10-01T21:45:27.183Z,82.30
2022-10-01T21:48:31.978Z,83.10
2022-10-01T21:51:35.592Z,82.50
2022-10-01T21:54:58.977Z,82.60
2022-10-01T21:58:04.940Z,83.50
2022-10-01T22:01:03.298Z,82.90
2022-10-01T22:04:03.076Z,82.80
2022-10-01T22:06:59.179Z,82.80
2022-10-01T22:10:03.639Z,82.50
2022-10-01T22:12:58.737Z,83.40
2022-10-01T22:15:53.084Z,82.40
2022-10-01T22:18:47.484Z,82.40
2022-10-01T22:21:41.421Z,83.30
2022-10-01T22:24:36.759Z,83.30
2022-10-01T22:27:33.377Z,84.10
2022-10-01T22:30:26.237Z,84.40
2022-10-01T22:33:21.767Z,84.10
2022-10-01T22:36:17.182Z,85.20
2022-10-01T22:39:13.816Z,85.20
2022-10-01T22:42:08.586Z,86.20
2022-10-01T22:45:10.179Z,86.50
2022-10-01T22:48:17.940Z,87.40
2022-10-01T22:51:26.694Z,87.80
2022-10-01T22:54:32.487Z,87.50
2022-10-01T22:57:45.268Z,87.30
2022-10-01T23:00:46.059Z,87.30
2022-10-01T23:03:51.405Z,86.30
2022-10-01T23:06:48.065Z,87.80
2022-10-01T23:09:44.784Z,85.90
2022-10-01T23:12:44.218Z,85.90
2022-10-01T23:15:43.856Z,86.50
2022-10-01T23:18:47.454Z,87.00
2022-10-01T23:21:44.349Z,87.60
2022-10-01T23:24:52.774Z,86.80
2022-10-01T23:28:09.738Z,87.70
2022-10-01T23:31:08.317Z,88.00
2022-10-01T23:34:14.313Z,88.40
2022-10-01T23:37:22.006Z,88.80
2022-10-01T23:40:14.626Z,89.00
2022-10-01T23:43:11.485Z,87.80
2022-10-01T23:46:08.633Z,88.40
2022-10-01T23:49:03.115Z,89.10
2022-10-01T23:52:02.317Z,88.30
2022-10-01T23:54:57.261Z,89.40
2022-10-01T23:57:47.582Z,88.60
